Time;durP1;ratioP1;P1;durP2;ratioP2;P2;SDS_P1;SDS_P2;PMS_P1;PMS_P2;Temp;Humidity;BMP_temperature;BMP_pressure;BME280_temperature;BME280_humidity;BME280_pressure;Samples;Min_cycle;Max_cycle;Signal;HPM_P1;HPM_P2
2023/06/03 00:00:47;;;;;;;1.20;0.90;;;;;;;8.02;89.14;102345.38;5019325;28;20212;-47
2023/06/03 00:03:13;;;;;;;3.53;0.98;;;;;;;8.17;89.68;102342.66;5020524;28;20199;-47
2023/06/03 00:05:42;;;;;;;2.95;1.00;;;;;;;8.25;89.75;102335.50;5021510;28;20192;-48
2023/06/03 00:08:08;;;;;;;3.42;1.00;;;;;;;8.13;89.76;102335.53;5017265;28;20694;-46
2023/06/03 00:10:33;;;;;;;1.52;0.90;;;;;;;8.14;89.67;102336.44;5013757;28;20188;-53
2023/06/03 00:12:58;;;;;;;1.85;0.77;;;;;;;7.82;89.86;102340.97;5016949;28;20204;-51
2023/06/03 00:15:24;;;;;;;1.73;1.08;;;;;;;7.71;90.84;102347.25;5015617;28;20258;-52
2023/06/03 00:17:50;;;;;;;1.17;1.08;;;;;;;7.69;91.73;102343.69;5021718;28;20191;-51
2023/06/03 00:20:16;;;;;;;1.83;1.10;;;;;;;7.52;92.64;102360.63;5019984;28;20184;-52
2023/06/03 00:22:42;;;;;;;1.95;0.88;;;;;;;7.74;93.82;102349.88;5021882;28;20258;-54
2023/06/03 00:25:08;;;;;;;1.35;1.25;;;;;;;7.91;93.89;102353.41;5023551;28;20192;-48
2023/06/03 00:27:38;;;;;;;1.10;1.00;;;;;;;7.99;93.59;102348.94;5020314;28;20176;-47
2023/06/03 00:30:05;;;;;;;1.20;1.10;;;;;;;7.84;93.41;102349.88;5020103;28;20191;-48
2023/06/03 00:32:30;;;;;;;1.42;1.10;;;;;;;7.58;93.78;102349.03;5006658;28;20512;-48
2023/06/03 00:34:56;;;;;;;1.55;1.10;;;;;;;7.73;94.49;102366.81;5007290;28;20217;-49
2023/06/03 00:37:21;;;;;;;2.58;1.20;;;;;;;7.80;94.54;102364.09;5004688;28;20204;-49
2023/06/03 00:39:47;;;;;;;3.08;1.17;;;;;;;7.58;94.53;102363.25;4991663;28;20176;-48
2023/06/03 00:42:12;;;;;;;1.30;1.00;;;;;;;7.55;94.88;102367.72;5026310;28;20637;-47
2023/06/03 00:44:38;;;;;;;1.85;1.10;;;;;;;7.41;95.10;102379.28;5026601;28;20180;-47
2023/06/03 00:47:04;;;;;;;1.48;1.17;;;;;;;7.51;96.50;102366.81;4991491;28;20215;-51
2023/06/03 00:49:31;;;;;;;2.80;1.30;;;;;;;7.56;96.77;102366.81;5025917;28;20176;-47
2023/06/03 00:51:56;;;;;;;2.60;0.95;;;;;;;7.67;96.87;102365.03;5011645;28;20298;-47
2023/06/03 00:54:22;;;;;;;1.35;1.02;;;;;;;7.73;96.88;102373.03;5002917;28;20737;-50
2023/06/03 00:56:48;;;;;;;1.40;1.10;;;;;;;7.73;96.81;102370.34;5000118;28;20655;-52
2023/06/03 00:59:16;;;;;;;1.92;1.17;;;;;;;7.76;96.30;102369.44;5015399;28;20668;-47
2023/06/03 01:01:44;;;;;;;1.20;1.10;;;;;;;7.64;95.92;102373.03;5022878;28;20185;-46
2023/06/03 01:04:16;;;;;;;1.92;1.10;;;;;;;7.61;95.70;102367.72;5018856;28;20628;-48
2023/06/03 01:07:07;;;;;;;1.80;1.08;;;;;;;7.39;95.78;102369.47;5004211;28;20679;-51
2023/06/03 01:09:44;;;;;;;1.77;1.17;;;;;;;7.19;96.41;102362.41;5023341;28;20265;-47
2023/06/03 01:12:30;;;;;;;1.23;1.00;;;;;;;7.32;97.17;102367.72;4999254;28;20210;-49
2023/06/03 01:14:59;;;;;;;2.05;1.42;;;;;;;7.40;97.69;102371.28;5017102;28;20186;-48
2023/06/03 01:17:28;;;;;;;1.60;1.23;;;;;;;7.45;97.44;102368.59;5019881;28;20212;-47
2023/06/03 01:19:56;;;;;;;1.55;1.30;;;;;;;7.40;97.42;102357.94;5002376;28;20175;-47
2023/06/03 01:22:26;;;;;;;2.55;1.20;;;;;;;7.21;97.13;102367.72;5020265;28;20185;-46
2023/06/03 01:25:16;;;;;;;2.00;1.38;;;;;;;6.92;97.90;102368.56;4999193;28;20184;-46
2023/06/03 01:27:45;;;;;;;1.98;1.40;;;;;;;6.90;99.13;102369.47;5003085;28;20666;-46
2023/06/03 01:30:16;;;;;;;1.20;1.10;;;;;;;7.11;99.94;102372.16;5017844;28;20264;-46
2023/06/03 01:32:43;;;;;;;2.20;1.20;;;;;;;7.25;100.00;102376.59;5006437;28;20290;-55
2023/06/03 01:35:10;;;;;;;1.65;0.93;;;;;;;7.03;99.98;102378.38;5026098;28;20210;-47
2023/06/03 01:37:37;;;;;;;2.22;1.10;;;;;;;6.91;100.00;102382.78;5025510;28;20204;-48
2023/06/03 01:40:04;;;;;;;2.15;1.27;;;;;;;6.98;100.00;102384.56;5007085;28;20602;-48
2023/06/03 01:42:34;;;;;;;2.08;1.15;;;;;;;6.75;100.00;102389.84;5002462;28;20188;-47
2023/06/03 01:45:01;;;;;;;1.50;1.00;;;;;;;6.91;100.00;102387.22;5009282;28;20682;-46
2023/06/03 01:47:27;;;;;;;1.45;1.10;;;;;;;7.03;100.00;102386.38;5012886;28;20183;-47
2023/06/03 01:49:53;;;;;;;1.70;1.30;;;;;;;7.15;100.00;102389.03;5024727;28;20765;-47
2023/06/03 01:52:19;;;;;;;2.78;1.02;;;;;;;7.18;100.00;102386.38;5005228;28;20187;-46
2023/06/03 01:54:45;;;;;;;2.20;1.30;;;;;;;7.18;100.00;102389.03;4984391;28;20193;-47
2023/06/03 01:57:11;;;;;;;1.27;1.10;;;;;;;7.00;100.00;102377.47;4997913;28;20201;-48
2023/06/03 01:59:37;;;;;;;1.25;1.13;;;;;;;6.70;100.00;102380.06;5001279;28;20181;-48
2023/06/03 02:02:03;;;;;;;1.63;1.00;;;;;;;6.67;100.00;102377.38;5002297;28;20199;-47
2023/06/03 02:04:29;;;;;;;1.92;1.20;;;;;;;6.82;100.00;102390.75;5020165;28;20185;-48
2023/06/03 02:06:59;;;;;;;1.73;1.30;;;;;;;6.93;100.00;102383.69;5022551;28;20556;-49
2023/06/03 02:09:29;;;;;;;2.10;1.10;;;;;;;6.97;100.00;102387.22;5006602;28;20318;-48
2023/06/03 02:11:57;;;;;;;1.33;1.23;;;;;;;6.98;100.00;102381.03;5009011;28;20615;-49
2023/06/03 02:14:24;;;;;;;2.55;1.38;;;;;;;6.80;100.00;102385.44;4996985;28;20359;-48
2023/06/03 02:16:50;;;;;;;6.28;1.45;;;;;;;6.74;100.00;102379.22;5017558;28;20204;-48
2023/06/03 02:19:19;;;;;;;1.73;1.35;;;;;;;6.88;100.00;102381.88;5016884;28;20183;-48
2023/06/03 02:21:45;;;;;;;1.38;1.27;;;;;;;6.96;100.00;102375.69;5021939;28;20666;-50
2023/06/03 02:24:14;;;;;;;4.65;1.65;;;;;;;6.94;100.00;102389.91;5005407;28;20202;-48
2023/06/03 02:27:24;;;;;;;1.30;1.20;;;;;;;7.01;100.00;102387.22;5025388;28;20258;-48
2023/06/03 02:29:30;;;;;;;1.63;1.25;;;;;;;6.88;100.00;102390.75;4992696;28;20189;-50
2023/06/03 02:31:57;;;;;;;1.67;1.10;;;;;;;6.91;100.00;102380.13;4988469;28;20195;-48
2023/06/03 02:34:23;;;;;;;2.15;1.30;;;;;;;6.64;100.00;102388.94;5009525;28;20189;-49
2023/06/03 02:36:49;;;;;;;1.60;1.23;;;;;;;6.69;100.00;102383.59;5016599;28;20294;-51
2023/06/03 02:39:16;;;;;;;1.33;1.13;;;;;;;6.75;100.00;102383.63;5016533;28;20254;-48
2023/06/03 02:41:43;;;;;;;1.77;1.58;;;;;;;6.83;100.00;102394.31;5027056;28;20189;-49
2023/06/03 02:44:09;;;;;;;1.30;1.17;;;;;;;6.79;100.00;102391.63;5025665;28;20238;-48
2023/06/03 02:46:35;;;;;;;1.88;1.20;;;;;;;6.85;100.00;102398.75;5004942;28;20670;-49
2023/06/03 02:49:04;;;;;;;1.95;1.40;;;;;;;6.70;100.00;102388.06;5018588;28;20237;-49
2023/06/03 02:51:29;;;;;;;1.88;1.38;;;;;;;6.75;100.00;102384.50;5017996;28;20194;-49
2023/06/03 02:53:56;;;;;;;1.30;1.20;;;;;;;6.83;100.00;102392.53;5017280;28;20551;-48
2023/06/03 02:56:22;;;;;;;1.90;1.20;;;;;;;6.82;100.00;102393.41;4997652;28;20648;-48
2023/06/03 02:58:48;;;;;;;2.67;1.30;;;;;;;6.68;100.00;102390.72;5017172;28;20188;-50
2023/06/03 03:01:14;;;;;;;1.30;1.20;;;;;;;6.57;100.00;102390.69;5012576;28;20525;-49
2023/06/03 03:03:40;;;;;;;1.00;0.93;;;;;;;6.52;100.00;102395.09;5009675;28;20206;-48
2023/06/03 03:06:06;;;;;;;1.42;1.33;;;;;;;6.62;100.00;102393.34;5024389;28;20253;-48
2023/06/03 03:08:35;;;;;;;2.78;1.35;;;;;;;6.68;100.00;102397.81;5019401;28;20239;-48
2023/06/03 03:11:02;;;;;;;2.08;1.40;;;;;;;6.62;100.00;102393.34;5009261;28;20246;-48
2023/06/03 03:13:27;;;;;;;2.00;1.60;;;;;;;6.51;100.00;102393.31;4996941;28;20177;-51
2023/06/03 03:15:53;;;;;;;3.53;1.75;;;;;;;6.47;100.00;102387.97;5016392;28;20710;-49
2023/06/03 03:18:19;;;;;;;1.70;1.40;;;;;;;6.49;100.00;102395.06;5014187;28;20276;-48
2023/06/03 03:20:45;;;;;;;1.33;1.30;;;;;;;6.48;100.00;102389.78;4990329;28;20287;-49
2023/06/03 03:23:15;;;;;;;2.08;1.33;;;;;;;6.56;100.00;102396.03;5001287;28;20234;-49
2023/06/03 03:25:42;;;;;;;2.45;1.30;;;;;;;6.57;100.00;102390.69;4995732;28;20270;-50
2023/06/03 03:28:07;;;;;;;2.13;1.63;;;;;;;6.59;100.00;102388.91;5009169;28;20646;-50
2023/06/03 03:30:36;;;;;;;2.50;1.50;;;;;;;6.60;100.00;102398.69;5015942;28;20314;-48
2023/06/03 03:33:06;;;;;;;2.45;1.45;;;;;;;6.56;100.00;102402.22;5003039;28;20267;-50
2023/06/03 03:35:32;;;;;;;1.38;1.23;;;;;;;6.59;100.00;102394.25;5000950;28;20215;-48
2023/06/03 03:38:04;;;;;;;1.65;1.35;;;;;;;6.66;100.00;102396.94;5000873;28;20246;-48
2023/06/03 03:40:35;;;;;;;2.15;1.30;;;;;;;6.66;100.00;102388.94;5004771;28;20188;-49
2023/06/03 03:43:02;;;;;;;1.65;1.27;;;;;;;6.70;100.00;102396.06;5019761;28;20632;-49
2023/06/03 03:45:33;;;;;;;2.00;1.38;;;;;;;6.76;100.00;102393.41;5006552;28;20291;-49
2023/06/03 03:48:08;;;;;;;1.40;1.13;;;;;;;6.83;100.00;102402.31;5014767;28;20475;-48
2023/06/03 03:50:42;;;;;;;1.60;1.20;;;;;;;6.79;100.00;102406.72;5004521;28;20236;-49
2023/06/03 03:53:17;;;;;;;1.58;1.27;;;;;;;6.83;100.00;102397.88;5006800;28;20339;-48
2023/06/03 03:55:46;;;;;;;2.28;1.27;;;;;;;6.89;100.00;102405.88;5001348;28;20212;-47
2023/06/03 03:58:41;;;;;;;1.45;1.17;;;;;;;6.93;100.00;102404.09;5010299;28;20651;-51
2023/06/03 04:01:18;;;;;;;1.30;1.20;;;;;;;6.96;100.00;102394.34;4997625;28;20192;-47
2023/06/03 04:03:47;;;;;;;1.95;1.30;;;;;;;6.97;100.00;102404.09;5007691;28;20212;-51
2023/06/03 04:06:35;;;;;;;1.95;1.30;;;;;;;7.05;100.00;102393.47;5006794;28;20585;-51
2023/06/03 04:09:01;;;;;;;1.98;1.10;;;;;;;7.07;100.00;102393.47;5023993;28;20697;-51
2023/06/03 04:11:29;;;;;;;2.30;1.13;;;;;;;7.16;100.00;102393.47;5029007;28;20211;-51
2023/06/03 04:13:57;;;;;;;1.42;1.05;;;;;;;7.25;100.00;102401.47;5004020;28;20181;-51
2023/06/03 04:16:38;;;;;;;2.33;1.30;;;;;;;7.33;100.00;102406.84;5003734;28;20220;-50
2023/06/03 04:19:06;;;;;;;1.33;1.20;;;;;;;7.36;100.00;102407.72;5018182;28;20667;-51
2023/06/03 04:21:37;;;;;;;2.35;1.50;;;;;;;7.40;100.00;102406.81;5007902;28;20199;-51
2023/06/03 04:24:04;;;;;;;1.98;1.70;;;;;;;7.51;100.00;102408.63;5024978;28;20275;-51
2023/06/03 04:26:30;;;;;;;1.50;1.20;;;;;;;7.58;100.00;102410.38;4990749;28;20634;-52
2023/06/03 04:28:56;;;;;;;2.25;1.75;;;;;;;7.66;100.00;102397.06;4999181;28;20195;-51
2023/06/03 04:31:21;;;;;;;2.10;1.52;;;;;;;7.71;100.00;102408.59;5016797;28;20218;-51
2023/06/03 04:33:49;;;;;;;2.42;1.75;;;;;;;7.76;100.00;102398.81;5016102;28;20243;-51
2023/06/03 04:36:14;;;;;;;2.17;1.58;;;;;;;7.82;100.00;102410.34;5010681;28;20225;-49
2023/06/03 04:38:41;;;;;;;1.98;1.50;;;;;;;7.89;100.00;102413.91;5002281;28;20187;-50
2023/06/03 04:41:10;;;;;;;1.77;1.60;;;;;;;7.97;100.00;102405.91;5010210;28;20275;-50
2023/06/03 04:43:38;;;;;;;2.50;1.80;;;;;;;8.07;100.00;102407.66;4990947;28;20188;-51
2023/06/03 04:46:06;;;;;;;1.67;1.58;;;;;;;8.16;100.00;102406.75;5014275;28;20196;-46
2023/06/03 04:48:33;;;;;;;2.13;1.73;;;;;;;8.28;100.00;102397.78;5004447;28;20310;-49
2023/06/03 04:51:01;;;;;;;2.45;1.98;;;;;;;8.40;100.00;102396.00;5015257;28;20266;-50
2023/06/03 04:53:28;;;;;;;5.47;2.63;;;;;;;8.49;100.00;102403.09;5000913;28;20264;-53
2023/06/03 04:55:55;;;;;;;3.45;2.05;;;;;;;8.58;100.00;102403.03;4997802;28;20213;-46
2023/06/03 04:58:22;;;;;;;4.13;1.90;;;;;;;8.72;100.00;102397.63;5001107;28;20656;-48
2023/06/03 05:00:49;;;;;;;3.55;2.22;;;;;;;8.88;100.00;102395.78;5000151;28;20204;-50
2023/06/03 05:03:17;;;;;;;2.88;2.25;;;;;;;9.02;100.00;102407.25;5005145;28;20262;-49
2023/06/03 05:05:43;;;;;;;2.95;2.25;;;;;;;9.14;100.00;102392.94;5010625;28;20206;-48
2023/06/03 05:08:11;;;;;;;2.88;2.22;;;;;;;9.32;100.00;102394.56;4995419;28;20676;-47
2023/06/03 05:10:38;;;;;;;4.03;2.63;;;;;;;9.51;100.00;102402.44;5004578;28;20205;-52
2023/06/03 05:13:08;;;;;;;3.15;2.35;;;;;;;9.70;100.00;102394.22;5000792;28;20549;-49
2023/06/03 05:15:35;;;;;;;2.92;2.45;;;;;;;9.88;100.00;102394.94;5013594;28;20216;-50
2023/06/03 05:18:01;;;;;;;4.03;2.20;;;;;;;10.02;100.00;102381.44;5000968;28;20188;-48
2023/06/03 05:20:30;;;;;;;2.55;1.80;;;;;;;10.16;100.00;102394.66;5012829;28;20186;-52
2023/06/03 05:22:55;;;;;;;3.20;2.90;;;;;;;10.26;100.00;102393.66;5009243;28;20185;-47
2023/06/03 05:25:22;;;;;;;4.55;3.00;;;;;;;10.30;100.00;102388.28;5005951;28;20715;-46
2023/06/03 05:27:48;;;;;;;6.60;3.08;;;;;;;10.38;100.00;102387.28;4986044;28;20184;-47
2023/06/03 05:30:15;;;;;;;2.63;2.42;;;;;;;10.48;100.00;102391.63;5014017;28;20317;-49
2023/06/03 05:32:41;;;;;;;3.92;2.42;;;;;;;10.59;100.00;102389.69;5022207;28;20192;-52
2023/06/03 05:35:09;;;;;;;2.75;2.30;;;;;;;10.63;100.00;102394.13;4994410;28;20196;-48
2023/06/03 05:37:36;;;;;;;2.90;1.90;;;;;;;10.72;100.00;102388.63;4999889;28;20607;-47
2023/06/03 05:40:02;;;;;;;2.58;2.17;;;;;;;10.89;100.00;102390.19;5031914;28;20595;-49
2023/06/03 05:42:31;;;;;;;2.38;2.00;;;;;;;10.94;100.00;102382.97;5011634;28;20173;-50
2023/06/03 05:44:57;;;;;;;6.20;2.28;;;;;;;11.10;100.00;102384.47;5001415;28;20655;-49
2023/06/03 05:47:22;;;;;;;3.95;1.80;;;;;;;11.25;100.00;102383.34;5000537;28;20191;-49
2023/06/03 05:49:49;;;;;;;1.65;1.35;;;;;;;11.38;100.00;102385.84;5013899;28;20164;-53
2023/06/03 05:52:14;;;;;;;1.50;1.40;;;;;;;11.49;100.00;102386.56;5000287;28;20188;-46
2023/06/03 05:54:40;;;;;;;1.88;1.60;;;;;;;11.54;100.00;102382.91;5014082;28;20397;-46
2023/06/03 05:57:06;;;;;;;3.58;1.73;;;;;;;11.62;100.00;102377.38;5013268;28;20309;-48
2023/06/03 05:59:32;;;;;;;1.63;1.52;;;;;;;11.73;100.00;102386.13;5013323;28;20719;-49
2023/06/03 06:01:57;;;;;;;3.58;1.70;;;;;;;11.84;100.00;102382.34;4997557;28;20577;-51
2023/06/03 06:04:23;;;;;;;1.77;1.33;;;;;;;11.95;100.00;102386.63;4993572;28;20243;-45
2023/06/03 06:06:49;;;;;;;6.80;1.83;;;;;;;12.17;100.00;102380.84;5015312;28;20196;-47
2023/06/03 06:09:15;;;;;;;2.85;1.60;;;;;;;12.22;100.00;102375.38;5000153;28;20280;-46
2023/06/03 06:11:42;;;;;;;3.15;1.35;;;;;;;12.43;100.00;102372.25;4993577;28;20193;-49
2023/06/03 06:14:08;;;;;;;1.52;1.42;;;;;;;12.47;100.00;102379.34;4992715;28;20569;-53
2023/06/03 06:16:34;;;;;;;1.05;0.95;;;;;;;12.57;98.52;102366.56;4993307;28;20706;-50
2023/06/03 06:19:01;;;;;;;1.20;1.00;;;;;;;12.82;98.90;102372.28;4977034;28;20192;-49
2023/06/03 06:21:29;;;;;;;2.50;1.58;;;;;;;12.99;97.60;102366.53;4992514;28;20275;-46
2023/06/03 06:23:55;;;;;;;2.22;0.80;;;;;;;13.07;94.70;102364.50;4992087;28;20173;-48
2023/06/03 06:26:21;;;;;;;2.03;0.80;;;;;;;13.22;92.12;102359.69;4992323;28;20196;-49
2023/06/03 06:28:48;;;;;;;1.30;0.70;;;;;;;13.36;90.74;102350.41;4993757;28;20216;-50
2023/06/03 06:31:17;;;;;;;2.75;0.85;;;;;;;13.48;89.05;102349.19;4993372;28;20173;-48
2023/06/03 06:33:48;;;;;;;1.95;1.00;;;;;;;13.51;87.77;102350.91;4993571;28;20616;-47
2023/06/03 06:36:29;;;;;;;2.00;0.88;;;;;;;13.66;86.56;102344.22;4992698;28;20212;-52
2023/06/03 06:38:57;;;;;;;1.25;0.63;;;;;;;13.72;85.21;102346.78;4974976;28;20172;-49
2023/06/03 06:41:27;;;;;;;2.20;0.80;;;;;;;13.92;82.98;102336.31;4977614;28;20535;-50
2023/06/03 06:43:54;;;;;;;0.80;0.80;;;;;;;13.96;81.21;102335.31;4993514;28;20172;-50
2023/06/03 06:46:23;;;;;;;1.25;0.80;;;;;;;14.10;79.67;102334.03;4993348;28;20196;-50
2023/06/03 06:48:49;;;;;;;1.23;0.82;;;;;;;14.23;78.21;102321.94;4993626;28;20160;-49
2023/06/03 06:51:14;;;;;;;2.08;1.00;;;;;;;14.39;77.66;102320.59;5010296;28;20188;-48
2023/06/03 06:53:47;;;;;;;1.00;0.70;;;;;;;14.29;75.89;102316.38;5011206;28;20223;-48
2023/06/03 06:56:15;;;;;;;1.10;0.57;;;;;;;14.50;73.57;102306.78;4993240;28;20213;-49
2023/06/03 06:58:45;;;;;;;1.35;0.60;;;;;;;14.58;72.73;102293.06;4993137;28;20172;-49
2023/06/03 07:01:11;;;;;;;1.85;0.60;;;;;;;14.80;71.26;102298.66;5011104;28;20167;-48
2023/06/03 07:03:42;;;;;;;1.23;0.50;;;;;;;14.54;70.17;102280.56;4993792;28;20632;-48
2023/06/03 07:06:10;;;;;;;4.53;0.60;;;;;;;15.01;70.40;102291.69;4992842;28;20204;-47
2023/06/03 07:08:47;;;;;;;1.52;0.60;;;;;;;14.95;69.07;102281.94;5019028;28;20172;-48
2023/06/03 07:11:15;;;;;;;1.65;0.57;;;;;;;15.18;67.59;102281.19;5016664;28;20350;-48
2023/06/03 07:13:46;;;;;;;1.67;0.60;;;;;;;15.16;65.92;102263.28;5009540;28;20200;-49
2023/06/03 07:16:14;;;;;;;1.02;0.80;;;;;;;15.17;65.07;102265.91;5006733;28;20284;-49
2023/06/03 07:18:40;;;;;;;1.75;0.60;;;;;;;15.26;65.64;102272.81;5006265;28;20184;-50
2023/06/03 07:21:06;;;;;;;0.63;0.45;;;;;;;15.27;65.18;102265.63;5005716;28;20254;-49
2023/06/03 07:23:33;;;;;;;1.92;0.60;;;;;;;15.44;64.19;102265.91;5018345;28;20175;-50
2023/06/03 07:25:59;;;;;;;3.47;0.60;;;;;;;15.27;65.03;102269.19;5018213;28;20245;-48
2023/06/03 07:28:30;;;;;;;1.45;0.77;;;;;;;15.53;64.86;102275.50;4986793;28;20267;-50
2023/06/03 07:30:59;;;;;;;3.17;0.60;;;;;;;15.59;63.75;102269.84;5003908;28;20238;-51
2023/06/03 07:33:26;;;;;;;3.45;0.60;;;;;;;15.69;63.51;102265.00;5000641;28;20568;-47
2023/06/03 07:35:54;;;;;;;2.15;0.60;;;;;;;15.69;64.72;102273.13;5005713;28;20702;-49
2023/06/03 07:38:49;;;;;;;0.63;0.60;;;;;;;15.35;64.34;102271.59;4995085;28;20189;-48
2023/06/03 07:41:31;;;;;;;0.68;0.60;;;;;;;15.72;64.04;102263.13;5008671;28;20215;-49
2023/06/03 07:43:58;;;;;;;0.90;0.50;;;;;;;15.90;63.65;102264.25;5005926;28;20251;-48
2023/06/03 07:46:36;;;;;;;1.05;0.50;;;;;;;16.00;62.69;102257.53;5016156;28;20196;-48
2023/06/03 07:49:03;;;;;;;7.00;0.82;;;;;;;15.98;62.94;102264.84;5012940;28;20283;-49
2023/06/03 07:51:28;;;;;;;1.05;0.70;;;;;;;15.94;62.77;102265.00;5013662;28;20189;-48
2023/06/03 07:53:55;;;;;;;2.50;0.60;;;;;;;16.01;61.39;102253.91;5014521;28;20192;-51
2023/06/03 07:56:21;;;;;;;1.60;0.50;;;;;;;16.02;61.54;102254.78;5016567;28;20212;-48
2023/06/03 07:58:46;;;;;;;5.75;0.77;;;;;;;16.04;61.55;102267.28;5011286;28;20276;-49
2023/06/03 08:01:15;;;;;;;1.55;0.60;;;;;;;15.94;62.00;102265.91;5020356;28;20184;-48
2023/06/03 08:03:41;;;;;;;3.00;0.70;;;;;;;15.88;62.09;102276.94;5020289;28;20208;-48
2023/06/03 08:06:07;;;;;;;1.02;0.52;;;;;;;15.95;62.89;102275.75;5012416;28;20678;-49
2023/06/03 08:08:33;;;;;;;1.17;0.80;;;;;;;16.30;62.39;102276.22;5011061;28;20603;-48
2023/06/03 08:11:01;;;;;;;2.03;0.65;;;;;;;16.17;61.05;102259.59;5015858;28;20250;-49
2023/06/03 08:13:27;;;;;;;1.27;0.80;;;;;;;16.27;61.56;102268.25;5004853;28;20189;-48
2023/06/03 08:15:52;;;;;;;1.33;0.70;;;;;;;16.72;60.83;102270.03;5018075;28;20208;-48
2023/06/03 08:18:35;;;;;;;2.10;0.50;;;;;;;16.47;59.96;102260.22;5016676;28;20537;-49
2023/06/03 08:21:02;;;;;;;1.95;0.88;;;;;;;16.38;60.34;102266.00;5017433;28;20196;-48
2023/06/03 08:23:28;;;;;;;1.00;0.52;;;;;;;16.19;60.24;102267.66;5005488;28;20558;-47
2023/06/03 08:25:53;;;;;;;1.52;0.70;;;;;;;16.53;59.77;102259.09;5022818;28;20204;-49
2023/06/03 08:28:19;;;;;;;0.80;0.60;;;;;;;16.80;59.31;102253.53;5018891;28;20245;-51
2023/06/03 08:30:44;;;;;;;0.93;0.73;;;;;;;16.60;60.31;102270.56;5021627;28;20281;-48
2023/06/03 08:33:10;;;;;;;2.40;0.88;;;;;;;16.43;60.22;102272.09;5021874;28;20183;-48
2023/06/03 08:35:35;;;;;;;1.33;0.80;;;;;;;16.70;60.27;102271.91;5015563;28;20215;-49
2023/06/03 08:38:02;;;;;;;1.45;0.50;;;;;;;16.75;60.89;102280.75;4999936;28;20188;-48
2023/06/03 08:40:31;;;;;;;0.80;0.50;;;;;;;16.34;60.37;102277.88;5017634;28;20185;-50
2023/06/03 08:43:02;;;;;;;0.47;0.40;;;;;;;16.46;60.37;102261.16;5014913;28;20268;-48
2023/06/03 08:45:34;;;;;;;3.47;0.70;;;;;;;16.57;59.64;102265.25;5010015;28;20585;-48
2023/06/03 08:48:21;;;;;;;2.95;0.68;;;;;;;16.71;59.13;102256.59;5024485;28;20179;-50
2023/06/03 08:50:49;;;;;;;1.88;0.50;;;;;;;16.36;59.14;102256.19;5020919;28;20273;-49
2023/06/03 08:53:15;;;;;;;0.65;0.50;;;;;;;16.82;58.51;102254.34;5027450;28;20310;-48
2023/06/03 08:55:41;;;;;;;2.20;0.77;;;;;;;16.56;58.01;102236.44;5020285;28;20686;-49
2023/06/03 08:58:16;;;;;;;0.43;0.43;;;;;;;16.53;59.19;102253.69;5023724;28;20172;-50
2023/06/03 09:00:43;;;;;;;1.00;0.45;;;;;;;16.79;58.82;102260.75;5021529;28;20191;-48
2023/06/03 09:03:11;;;;;;;1.25;0.43;;;;;;;16.84;57.54;102244.34;5024647;28;20180;-48
2023/06/03 09:05:37;;;;;;;2.97;0.63;;;;;;;16.95;57.59;102249.31;5024491;28;20222;-48
2023/06/03 09:08:04;;;;;;;1.17;0.45;;;;;;;16.85;56.96;102230.72;5023489;28;20180;-48
2023/06/03 09:10:32;;;;;;;1.10;0.68;;;;;;;16.97;55.87;102221.22;5015543;28;20263;-48
2023/06/03 09:13:02;;;;;;;1.35;0.60;;;;;;;16.73;57.88;102236.63;5025257;28;20214;-47
2023/06/03 09:15:31;;;;;;;1.02;0.70;;;;;;;16.99;57.44;102232.84;5020305;28;20208;-48
2023/06/03 09:17:57;;;;;;;1.75;0.60;;;;;;;16.86;58.25;102242.44;5022941;28;20557;-49
2023/06/03 09:20:24;;;;;;;1.08;0.60;;;;;;;16.92;58.57;102246.69;5019882;28;20254;-49
2023/06/03 09:22:51;;;;;;;3.05;0.60;;;;;;;16.84;58.49;102245.22;5021321;28;20192;-50
2023/06/03 09:25:17;;;;;;;0.30;0.25;;;;;;;16.99;58.20;102250.91;5013253;28;20207;-48
2023/06/03 09:27:43;;;;;;;2.42;0.57;;;;;;;16.76;57.06;102231.06;5016647;28;20274;-47
2023/06/03 09:30:09;;;;;;;1.02;0.57;;;;;;;16.98;56.71;102227.50;5021852;28;20628;-47
2023/06/03 09:32:37;;;;;;;2.28;0.50;;;;;;;16.95;57.50;102249.31;5013239;28;20200;-47
2023/06/03 09:35:05;;;;;;;1.85;0.60;;;;;;;16.85;57.22;102244.25;5017976;28;20202;-47
2023/06/03 09:37:32;;;;;;;2.33;0.70;;;;;;;16.72;58.38;102253.78;5020417;28;20263;-48
2023/06/03 09:39:58;;;;;;;2.80;0.70;;;;;;;16.92;59.18;102268.38;5019533;28;20168;-46
2023/06/03 09:42:39;;;;;;;1.98;0.50;;;;;;;16.82;57.87;102251.63;5023835;28;20176;-48
2023/06/03 09:45:05;;;;;;;0.60;0.47;;;;;;;16.61;58.69;102259.66;5019560;28;20275;-47
2023/06/03 09:47:39;;;;;;;0.40;0.40;;;;;;;16.81;58.83;102266.09;5003737;28;20600;-47
2023/06/03 09:50:11;;;;;;;1.40;0.57;;;;;;;16.96;57.57;102245.63;5002849;28;20397;-47
2023/06/03 09:52:37;;;;;;;1.73;0.50;;;;;;;16.83;57.17;102240.72;5017852;28;20589;-49
2023/06/03 09:55:05;;;;;;;4.18;0.55;;;;;;;16.89;56.47;102232.34;5013679;28;20189;-47
2023/06/03 09:57:30;;;;;;;1.40;0.55;;;;;;;17.21;57.01;102245.47;5019521;28;20212;-49
2023/06/03 10:00:11;;;;;;;1.27;0.50;;;;;;;16.95;57.32;102246.59;5021336;28;20543;-49
2023/06/03 10:02:42;;;;;;;2.75;0.63;;;;;;;16.57;56.93;102227.38;5022219;28;20184;-50
2023/06/03 10:05:34;;;;;;;1.35;0.60;;;;;;;17.07;56.87;102235.22;5003041;28;20239;-48
2023/06/03 10:08:05;;;;;;;1.20;0.52;;;;;;;16.93;57.69;102248.47;5022168;28;20254;-47
2023/06/03 10:10:33;;;;;;;1.27;0.55;;;;;;;16.85;57.77;102246.97;5019651;28;20235;-48
2023/06/03 10:13:18;;;;;;;1.95;0.80;;;;;;;17.15;58.08;102259.28;5022589;28;20181;-49
2023/06/03 10:15:43;;;;;;;1.45;0.70;;;;;;;17.34;56.95;102248.50;5018092;28;20211;-46
2023/06/03 10:18:09;;;;;;;2.55;0.55;;;;;;;17.07;56.73;102244.22;5024385;28;20274;-48
2023/06/03 10:20:39;;;;;;;1.33;0.70;;;;;;;16.81;57.08;102242.63;5007167;28;20186;-47
2023/06/03 10:23:07;;;;;;;2.42;0.68;;;;;;;16.65;56.00;102217.13;5015899;28;20238;-47
2023/06/03 10:25:42;;;;;;;0.68;0.50;;;;;;;17.49;54.32;102209.88;5015856;28;20204;-49
2023/06/03 10:28:09;;;;;;;1.42;0.93;;;;;;;17.72;48.41;102151.91;5016050;28;20525;-48
2023/06/03 10:30:35;;;;;;;0.98;0.75;;;;;;;17.16;53.14;102196.91;5018255;28;20191;-44
2023/06/03 10:33:06;;;;;;;3.10;0.75;;;;;;;17.33;53.60;102206.13;5020355;28;20651;-44
2023/06/03 10:35:32;;;;;;;0.73;0.70;;;;;;;17.39;51.44;102184.19;5018408;28;20287;-42
2023/06/03 10:38:02;;;;;;;1.38;0.68;;;;;;;16.93;52.40;102197.91;5017168;28;20188;-45
2023/06/03 10:40:28;;;;;;;3.63;0.57;;;;;;;17.40;53.48;102210.31;5025786;28;20195;-47
2023/06/03 10:42:55;;;;;;;0.55;0.50;;;;;;;17.72;49.57;102170.91;5015134;28;20235;-49
2023/06/03 10:45:21;;;;;;;1.40;0.60;;;;;;;18.64;45.88;102122.13;5034993;22;20192;-46
2023/06/03 10:47:51;;;;;;;1.48;0.60;;;;;;;17.95;48.46;102149.97;5032835;28;20326;-47
2023/06/03 10:51:02;;;;;;;2.67;0.40;;;;;;;18.15;51.20;102187.88;5039617;28;20685;-45
2023/06/03 10:54:05;;;;;;;3.03;0.80;;;;;;;18.71;45.81;102112.69;5036252;28;20214;-45
2023/06/03 10:57:03;;;;;;;2.13;0.45;;;;;;;18.55;44.47;102095.47;5041258;28;20577;-44
2023/06/03 10:59:40;;;;;;;4.68;0.80;;;;;;;17.88;48.33;102139.41;5033335;28;20781;-47
2023/06/03 11:02:06;;;;;;;3.95;0.55;;;;;;;17.54;49.38;102148.25;5037675;28;20670;-45
2023/06/03 11:04:35;;;;;;;1.60;0.68;;;;;;;18.06;46.48;102118.69;5039865;28;20650;-45
2023/06/03 11:07:03;;;;;;;0.73;0.50;;;;;;;18.01;46.62;102127.97;5042822;28;20199;-45
2023/06/03 11:09:39;;;;;;;0.63;0.50;;;;;;;17.69;49.25;102161.09;5041215;28;20672;-47
2023/06/03 11:12:13;;;;;;;1.98;0.60;;;;;;;17.83;50.09;102162.28;5039657;28;20573;-46
2023/06/03 11:14:48;;;;;;;1.77;0.57;;;;;;;18.20;45.75;102117.13;5037603;28;20218;-45
2023/06/03 11:17:20;;;;;;;2.75;0.73;;;;;;;18.12;46.62;102128.34;5036339;28;20203;-45
2023/06/03 11:19:55;;;;;;;1.00;0.57;;;;;;;18.47;43.93;102083.13;5038341;28;20203;-45
2023/06/03 11:22:27;;;;;;;2.40;0.70;;;;;;;18.83;42.12;102060.50;5053556;28;20195;-45
2023/06/03 11:24:53;;;;;;;0.38;0.38;;;;;;;17.85;45.11;102093.47;5030014;28;20663;-46
2023/06/03 11:27:19;;;;;;;2.28;0.50;;;;;;;17.61;47.64;102128.03;5039674;28;20179;-45
2023/06/03 11:29:48;;;;;;;0.73;0.52;;;;;;;17.59;49.11;102140.78;5033167;28;20880;-45
2023/06/03 11:32:18;;;;;;;2.70;0.60;;;;;;;17.85;46.85;102128.72;5036883;28;20196;-47
2023/06/03 11:34:45;;;;;;;1.98;0.80;;;;;;;17.95;47.73;102120.16;5035684;28;20707;-48